Time;durP1;ratioP1;P1;durP2;ratioP2;P2;SDS_P1;SDS_P2;PMS_P1;PMS_P2;Temp;Humidity;BMP_temperature;BMP_pressure;BME280_temperature;BME280_humidity;BME280_pressure;Samples;Min_cycle;Max_cycle;Signal;HPM_P1;HPM_P2
2022/01/26 04:20:03;;;;;;;;;;;;;;;2.60;95.83;101175.06;5642147;23;20570;-85
2022/01/26 04:22:37;;;;;;;;;;;;;;;2.57;95.18;101175.94;4995444;28;19922;-87
2022/01/26 04:25:05;;;;;;;;;;;;;;;2.46;94.76;101174.94;4995964;28;19968;-84
2022/01/26 04:27:41;;;;;;;;;;;;;;;2.44;94.20;101181.84;4996277;28;19918;-84
2022/01/26 04:30:07;;;;;;;;;;;;;;;2.44;93.94;101171.41;4978611;28;20013;-85
2022/01/26 04:32:32;;;;;;;;;;;;;;;2.32;93.28;101186.06;4977699;28;20438;-84
2022/01/26 04:34:57;;;;;;;;;;;;;;;2.29;92.95;101186.03;4994963;28;19922;-85
2022/01/26 04:40:10;;;;;;;;;;;;;;;2.21;91.93;101205.13;4996157;28;19922;-90
2022/01/26 04:45:11;;;;;;;;;;;;;;;2.22;90.83;101201.63;4995965;28;19917;-90
2022/01/26 04:47:37;;;;;;;;;;;;;;;2.22;90.30;101194.66;4995779;28;19925;-86
2022/01/26 04:50:05;;;;;;;;;;;;;;;2.22;91.11;101189.44;4976849;28;19920;-90
2022/01/26 04:52:30;;;;;;;;;;;;;;;2.28;91.74;101173.84;4995717;28;19918;-87
2022/01/26 04:54:55;;;;;;;;;;;;;;;2.26;91.95;101175.53;4996231;28;19967;-85
2022/01/26 04:57:20;;;;;;;;;;;;;;;2.22;91.78;101178.06;4995485;28;20377;-85
2022/01/26 04:59:45;;;;;;;;;;;;;;;2.21;91.88;101187.66;4995849;28;19921;-85
2022/01/26 05:02:11;;;;;;;;;;;;;;;2.13;91.78;101190.19;4995630;28;20020;-85
2022/01/26 05:04:36;;;;;;;;;;;;;;;2.16;91.38;101195.44;4994356;28;20424;-85
2022/01/26 05:07:01;;;;;;;;;;;;;;;2.07;91.13;101190.09;4995615;28;20270;-86
2022/01/26 05:09:26;;;;;;;;;;;;;;;2.00;90.81;101196.97;4977836;28;20020;-85
2022/01/26 05:11:54;;;;;;;;;;;;;;;1.98;90.44;101185.63;4977863;28;20276;-85
2022/01/26 05:14:19;;;;;;;;;;;;;;;1.98;89.97;101179.53;4977726;28;19928;-85
2022/01/26 05:16:45;;;;;;;;;;;;;;;1.88;89.90;101178.47;4977942;28;20012;-84
2022/01/26 05:19:10;;;;;;;;;;;;;;;1.85;89.66;101162.78;4975454;28;19930;-85
2022/01/26 05:21:36;;;;;;;;;;;;;;;1.79;89.27;101150.47;4994272;28;19925;-85
2022/01/26 08:47:22;;;;;;;;;;;;;;;1.03;80.72;101223.19;5258299;23;19941;-88
2022/01/26 08:49:48;;;;;;;;;;;;;;;1.00;80.55;101229.22;4991120;28;19921;-88
2022/01/26 08:52:13;;;;;;;;;;;;;;;1.01;80.45;101243.19;4992124;28;20388;-84
2022/01/26 08:54:38;;;;;;;;;;;;;;;0.99;80.18;101227.50;5010752;28;19945;-84
2022/01/26 08:57:04;;;;;;;;;;;;;;;1.00;80.21;101228.38;4995665;28;20383;-84
2022/01/26 08:59:29;;;;;;;;;;;;;;;1.01;80.01;101224.91;4995745;28;19918;-86
2022/01/26 09:01:54;;;;;;;;;;;;;;;0.99;79.88;101206.59;4994270;28;19921;-86
2022/01/26 09:04:20;;;;;;;;;;;;;;;1.02;79.96;101216.22;4995430;28;19922;-84
2022/01/26 09:06:56;;;;;;;;;;;;;;;1.02;79.83;101227.56;4995529;28;19921;-87
2022/01/26 09:09:41;;;;;;;;;;;;;;;1.02;79.81;101211.00;4995276;28;20300;-89
2022/01/26 09:12:08;;;;;;;;;;;;;;;1.02;79.61;101221.44;4995107;28;19917;-87
2022/01/26 09:14:34;;;;;;;;;;;;;;;1.01;79.37;101232.75;4977205;28;19917;-85
2022/01/26 09:17:02;;;;;;;;;;;;;;;1.02;79.19;101231.88;4993894;28;19932;-87
2022/01/26 09:19:29;;;;;;;;;;;;;;;1.04;79.05;101224.97;4995324;28;19917;-85
2022/01/26 09:21:56;;;;;;;;;;;;;;;1.05;79.00;101230.22;4993907;28;20280;-89
2022/01/26 09:24:21;;;;;;;;;;;;;;;1.04;78.92;101235.41;4995046;28;19928;-83
2022/01/26 09:26:47;;;;;;;;;;;;;;;1.04;78.84;101228.44;4995191;28;20370;-89
2022/01/26 09:29:12;;;;;;;;;;;;;;;1.05;78.75;101232.84;4977261;28;20285;-89
2022/01/26 09:31:37;;;;;;;;;;;;;;;1.06;78.62;101241.53;4993673;28;20028;-87
2022/01/26 09:34:02;;;;;;;;;;;;;;;1.08;78.85;101243.31;4994817;28;19965;-90
2022/01/26 09:36:28;;;;;;;;;;;;;;;1.13;78.87;101239.91;4995013;28;19918;-87
2022/01/26 09:38:53;;;;;;;;;;;;;;;1.12;78.77;101252.09;4995016;28;19922;-89
2022/01/26 09:41:22;;;;;;;;;;;;;;;1.13;78.71;101252.97;4994908;28;19922;-87
2022/01/26 09:43:48;;;;;;;;;;;;;;;1.10;78.72;101264.22;5595252;23;20752;-89
2022/01/26 09:46:13;;;;;;;;;;;;;;;1.15;78.41;101260.00;4995282;28;19968;-89
2022/01/26 09:48:39;;;;;;;;;;;;;;;1.13;78.29;101246.00;4996921;28;20326;-89
2022/01/26 09:51:10;;;;;;;;;;;;;;;1.13;77.96;101266.91;4996425;28;20650;-88
2022/01/26 09:53:36;;;;;;;;;;;;;;;1.14;77.66;101268.66;4996694;28;19921;-85
2022/01/26 09:56:01;;;;;;;;;;;;;;;1.13;77.49;101274.72;5011641;28;19967;-88
2022/01/26 09:58:27;;;;;;;;;;;;;;;1.19;77.59;101280.06;5014324;28;20342;-89
2022/01/26 10:00:59;;;;;;;;;;;;;;;1.18;77.58;101291.38;5012985;28;19924;-90
2022/01/26 10:03:30;;;;;;;;;;;;;;;1.16;77.30;101286.97;5012156;28;19975;-85
2022/01/26 10:05:56;;;;;;;;;;;;;;;1.14;77.02;101279.13;5012545;28;19921;-87
2022/01/26 10:08:40;;;;;;;;;;;;;;;1.18;76.86;101260.06;5013381;28;19922;-86
2022/01/26 10:19:17;;;;;;;;;;;;;;;1.26;76.76;101253.25;4967395;28;19921;-88
2022/01/26 10:21:47;;;;;;;;;;;;;;;1.26;76.56;101250.63;5013618;28;19983;-86
2022/01/26 10:24:13;;;;;;;;;;;;;;;1.32;76.47;101264.66;5012449;28;19925;-87
2022/01/26 10:26:38;;;;;;;;;;;;;;;1.30;76.39;101280.28;5011995;28;20012;-84
2022/01/26 10:29:04;;;;;;;;;;;;;;;1.31;76.34;101302.94;5012840;28;20004;-85
2022/01/26 10:31:39;;;;;;;;;;;;;;;1.31;76.14;101304.66;5010679;28;19932;-84
2022/01/26 10:34:08;;;;;;;;;;;;;;;1.32;76.08;101302.06;5013298;28;19969;-84
2022/01/26 10:36:50;;;;;;;;;;;;;;;1.35;76.02;101302.13;5012738;28;20388;-87
2022/01/26 10:39:26;;;;;;;;;;;;;;;1.37;76.23;101310.91;4996725;28;19925;-84
2022/01/26 10:41:54;;;;;;;;;;;;;;;1.39;76.08;101295.28;4996056;28;19925;-86
2022/01/26 10:44:34;;;;;;;;;;;;;;;1.39;75.54;101285.69;5012721;28;19925;-91
2022/01/26 10:47:02;;;;;;;;;;;;;;;1.41;75.56;101270.03;5011279;28;19956;-88
2022/01/26 10:49:54;;;;;;;;;;;;;;;1.40;75.64;101261.31;5012380;28;20496;-88
2022/01/26 10:52:21;;;;;;;;;;;;;;;1.44;75.55;101267.50;5012876;28;20431;-84
2022/01/26 10:54:47;;;;;;;;;;;;;;;1.44;75.43;101275.34;5010990;28;20434;-83
2022/01/26 10:57:16;;;;;;;;;;;;;;;1.47;75.48;101261.41;5011940;28;20005;-90
2022/01/26 10:59:43;;;;;;;;;;;;;;;1.47;75.19;101251.88;5010749;28;19928;-85
2022/01/26 11:02:09;;;;;;;;;;;;;;;1.47;75.24;101256.19;5011296;28;19921;-84
2022/01/26 11:04:35;;;;;;;;;;;;;;;1.51;75.08;101266.72;5013021;28;19948;-84
2022/01/26 11:07:02;;;;;;;;;;;;;;;1.56;74.68;101261.59;5013029;28;19924;-85
2022/01/26 11:09:30;;;;;;;;;;;;;;;1.49;74.28;101276.28;5012825;28;19924;-87
2022/01/26 11:12:06;;;;;;;;;;;;;;;1.55;74.35;101288.59;4995172;28;19917;-89
2022/01/26 11:14:42;;;;;;;;;;;;;;;1.52;74.19;101281.56;5011870;28;19922;-84
2022/01/26 11:17:08;;;;;;;;;;;;;;;1.54;74.07;101279.84;5010424;28;19922;-86
2022/01/26 11:19:44;;;;;;;;;;;;;;;1.56;74.21;101283.38;4995215;28;19987;-88
2022/01/26 11:22:10;;;;;;;;;;;;;;;1.62;74.45;101282.59;4994900;28;19925;-89
2022/01/26 11:24:47;;;;;;;;;;;;;;;1.62;74.40;101293.94;4994975;28;20028;-84
2022/01/26 11:27:13;;;;;;;;;;;;;;;1.62;74.42;101280.88;4994612;28;19917;-85
2022/01/26 11:29:43;;;;;;;;;;;;;;;1.63;74.24;101274.78;4994722;28;19971;-83
2022/01/26 11:32:14;;;;;;;;;;;;;;;1.61;74.14;101268.69;4993671;28;19924;-89
2022/01/26 11:34:40;;;;;;;;;;;;;;;1.65;74.21;101276.56;4994795;28;19918;-86
2022/01/26 11:37:17;;;;;;;;;;;;;;;1.65;74.00;101277.44;5012372;28;20047;-86
2022/01/26 11:45:08;;;;;;;;;;;;;;;1.68;73.87;101264.44;5012191;28;20349;-86
2022/01/26 11:47:35;;;;;;;;;;;;;;;1.70;73.71;101257.47;5010780;28;19991;-89
2022/01/26 11:50:26;;;;;;;;;;;;;;;1.71;73.64;101261.88;5012205;28;19965;-86
2022/01/26 11:52:59;;;;;;;;;;;;;;;1.70;73.42;101248.78;5006920;28;19918;-84
2022/01/26 11:55:33;;;;;;;;;;;;;;;1.70;73.32;101248.78;4994268;28;20332;-86
2022/01/26 11:58:11;;;;;;;;;;;;;;;1.71;73.36;101240.97;5011652;28;19921;-86
2022/01/26 12:00:45;;;;;;;;;;;;;;;1.73;73.31;101248.81;5010143;28;20347;-85
2022/01/26 12:03:20;;;;;;;;;;;;;;;1.78;73.20;101244.56;5011848;28;19928;-84
2022/01/26 12:05:47;;;;;;;;;;;;;;;1.79;73.16;101248.94;5011375;28;19921;-89
2022/01/26 12:08:13;;;;;;;;;;;;;;;1.83;73.37;101239.41;5012037;28;19914;-83
2022/01/26 12:10:39;;;;;;;;;;;;;;;1.83;73.34;101234.16;4994354;28;19921;-83
2022/01/26 12:13:06;;;;;;;;;;;;;;;1.83;73.43;101239.41;4994332;28;19964;-88
2022/01/26 12:15:43;;;;;;;;;;;;;;;1.81;73.49;101240.25;4993054;28;20000;-89
2022/01/26 12:35:03;;;;;;;;;;;;;;;1.78;72.45;101226.25;4976870;28;19952;-83
2022/01/26 12:37:40;;;;;;;;;;;;;;;1.80;72.46;101219.31;4997405;28;19917;-90
2022/01/26 12:45:23;;;;;;;;;;;;;;;1.88;72.36;101248.19;5015355;28;19922;-83
2022/01/26 12:47:52;;;;;;;;;;;;;;;1.85;72.22;101249.03;5014274;28;19960;-83
2022/01/26 12:50:19;;;;;;;;;;;;;;;1.92;72.71;101245.66;5015345;28;20280;-90
2022/01/26 12:52:48;;;;;;;;;;;;;;;2.21;75.02;101237.38;5015350;28;19922;-84
2022/01/26 12:55:20;;;;;;;;;;;;;;;2.41;77.96;101218.44;5015058;28;20280;-83
2022/01/26 12:57:45;;;;;;;;;;;;;;;2.49;80.52;101208.97;5015315;28;20044;-84
2022/01/26 13:00:11;;;;;;;;;;;;;;;2.55;82.64;101224.75;5015234;28;19921;-83
2022/01/26 13:02:36;;;;;;;;;;;;;;;2.58;84.35;101234.38;5013717;28;19922;-83
2022/01/26 13:05:03;;;;;;;;;;;;;;;2.55;85.64;101237.81;5015157;28;20395;-82
2022/01/26 13:07:29;;;;;;;;;;;;;;;2.57;86.90;101240.47;5015067;28;20388;-83
2022/01/26 13:09:54;;;;;;;;;;;;;;;2.58;88.00;101237.88;5014941;28;19947;-83
2022/01/26 13:12:29;;;;;;;;;;;;;;;2.56;89.03;101234.34;5014993;28;20296;-83
2022/01/26 13:15:08;;;;;;;;;;;;;;;2.56;90.21;101234.34;5014804;28;19921;-83
2022/01/26 13:17:42;;;;;;;;;;;;;;;2.52;91.34;101243.00;5013044;28;19928;-92
2022/01/26 13:20:30;;;;;;;;;;;;;;;2.51;92.44;101238.66;5014868;28;19922;-83
2022/01/26 13:25:39;;;;;;;;;;;;;;;2.48;95.24;101246.47;5014883;28;19961;-83
2022/01/26 13:30:51;;;;;;;;;;;;;;;2.58;98.43;101243.09;5012745;28;19917;-85
2022/01/26 13:33:41;;;;;;;;;;;;;;;2.84;100.00;101243.44;4996747;28;19918;-85
2022/01/26 13:36:48;;;;;;;;;;;;;;;3.05;100.00;101239.31;5014407;28;19944;-90
2022/01/26 13:41:34;;;;;;;;;;;;;;;3.27;100.00;101248.25;5014646;28;20383;-90
2022/01/26 13:56:51;;;;;;;;;;;;;;;3.60;100.00;101250.34;5013998;28;20263;-84
2022/01/26 13:59:43;;;;;;;;;;;;;;;3.61;100.00;101256.47;5014092;28;19921;-84
2022/01/26 14:02:08;;;;;;;;;;;;;;;3.68;100.00;101254.78;5012584;28;20254;-84
2022/01/26 14:04:34;;;;;;;;;;;;;;;3.70;100.00;101255.66;5014080;28;20176;-84
2022/01/26 14:07:00;;;;;;;;;;;;;;;3.75;100.00;101260.09;4996485;28;19967;-91
2022/01/26 14:09:25;;;;;;;;;;;;;;;3.75;100.00;101260.09;5014073;28;19972;-86
2022/01/26 14:11:50;;;;;;;;;;;;;;;3.78;100.00;101243.50;5013692;28;19921;-84
2022/01/26 14:14:29;;;;;;;;;;;;;;;3.85;100.00;101244.44;5014051;28;20344;-89
2022/01/26 14:16:59;;;;;;;;;;;;;;;3.87;100.00;101237.47;5012790;28;20416;-84
2022/01/26 14:19:30;;;;;;;;;;;;;;;3.90;100.00;101240.09;5013868;28;19980;-84
2022/01/26 14:24:28;;;;;;;;;;;;;;;3.98;100.00;101230.56;5013700;28;19925;-84
2022/01/26 14:26:57;;;;;;;;;;;;;;;3.52;100.00;101228.41;5013474;28;20372;-90
2022/01/26 14:32:27;;;;;;;;;;;;;;;2.67;100.00;101224.91;5011713;28;19924;-84
2022/01/26 14:35:20;;;;;;;;;;;;;;;2.43;100.00;101215.00;5013159;28;20361;-84
2022/01/26 14:40:46;;;;;;;;;;;;;;;2.32;100.00;101196.53;5013329;28;20376;-83
2022/01/26 15:29:52;;;;;;;;;;;;;;;1.63;86.18;101203.38;4942625;29;19919;-86
2022/01/26 15:30:26;;;;;;;;;;;;;;;1.54;85.12;101211.91;5012466;28;19924;-83
2022/01/26 15:43:42;;;;;;;;;;;;;;;1.47;83.92;101224.84;5012297;28;19964;-83
2022/01/26 15:49:04;;;;;;;;;;;;;;;1.35;83.91;101225.53;5012297;28;19971;-88
2022/01/26 16:05:57;;;;;;;;;;;;;;;1.30;83.05;101207.16;5011848;28;20387;-83
2022/01/26 16:08:08;;;;;;;;;;;;;;;1.30;82.92;101207.16;5000997;28;20430;-89
2022/01/26 16:21:26;;;;;;;;;;;;;;;1.16;82.66;101196.47;5012171;28;19967;-85
2022/01/26 17:24:22;;;;;;;;;;;;;;;1.05;81.58;101231.94;5015078;28;20674;-84
2022/01/26 18:16:01;;;;;;;;;;;;;;;0.84;79.91;101246.31;5012664;28;19973;-87
2022/01/26 18:50:38;;;;;;;;;;;;;;;0.88;79.12;101218.56;5013279;28;19925;-82
2022/01/26 18:53:04;;;;;;;;;;;;;;;0.85;79.18;101214.16;4995831;28;20315;-83
2022/01/26 18:55:29;;;;;;;;;;;;;;;0.93;79.22;101208.22;5012990;28;20012;-84
2022/01/26 18:57:54;;;;;;;;;;;;;;;0.88;78.65;101209.00;5012981;28;19928;-82
2022/01/26 19:00:20;;;;;;;;;;;;;;;0.79;78.55;101193.16;4995334;28;19929;-83
2022/01/26 19:02:45;;;;;;;;;;;;;;;0.86;78.66;101183.72;5011871;28;20284;-83
2022/01/26 19:05:12;;;;;;;;;;;;;;;0.82;78.42;101182.78;5012867;28;19917;-86
2022/01/26 19:07:38;;;;;;;;;;;;;;;0.89;78.45;101183.78;5011972;28;19914;-83
2022/01/26 19:10:04;;;;;;;;;;;;;;;0.86;78.53;101195.06;4994491;28;19929;-84
2022/01/26 19:12:33;;;;;;;;;;;;;;;0.87;78.35;101193.31;5012304;28;20305;-82
2022/01/26 19:15:02;;;;;;;;;;;;;;;0.81;78.46;101201.88;5012569;28;19921;-87
2022/01/26 19:17:50;;;;;;;;;;;;;;;0.88;78.49;101210.75;5010555;28;20285;-89
2022/01/26 19:23:32;;;;;;;;;;;;;;;0.77;78.48;101210.53;5012069;28;19925;-84
2022/01/26 19:25:34;;;;;;;;;;;;;;;0.75;78.42;101214.84;5005784;28;19983;-87
2022/01/26 19:28:15;;;;;;;;;;;;;;;0.76;78.32;101213.09;5011935;28;19922;-86
2022/01/26 19:54:26;;;;;;;;;;;;;;;0.76;77.70;101205.28;5011575;28;19983;-83
2022/01/26 19:56:52;;;;;;;;;;;;;;;0.75;77.90;101211.34;5012358;28;19925;-85
2022/01/26 19:59:17;;;;;;;;;;;;;;;0.76;77.70;101206.16;5011978;28;19924;-83
2022/01/26 20:01:42;;;;;;;;;;;;;;;0.78;77.48;101207.03;5010750;28;20782;-84
2022/01/26 20:04:09;;;;;;;;;;;;;;;0.80;77.42;101209.69;5010904;28;19926;-89
2022/01/26 20:06:34;;;;;;;;;;;;;;;0.77;77.39;101205.31;5012141;28;19921;-89
2022/01/26 20:09:12;;;;;;;;;;;;;;;0.76;77.10;101202.66;5011965;28;20269;-83
2022/01/26 20:11:46;;;;;;;;;;;;;;;0.80;77.00;101194.94;4994347;28;20411;-83
2022/01/26 20:14:14;;;;;;;;;;;;;;;0.79;76.87;101203.59;5011208;28;19917;-88
2022/01/26 20:16:40;;;;;;;;;;;;;;;0.82;76.83;101201.06;5010889;28;20335;-83
2022/01/26 20:19:05;;;;;;;;;;;;;;;0.78;76.74;101201.81;4993965;28;19926;-85
2022/01/26 20:21:30;;;;;;;;;;;;;;;0.81;76.67;101206.25;5012190;28;20436;-87
2022/01/26 20:23:56;;;;;;;;;;;;;;;0.79;76.60;101194.91;5011404;28;19925;-83
2022/01/26 20:26:22;;;;;;;;;;;;;;;0.80;76.47;101197.53;5011454;28;19933;-87
2022/01/26 20:28:47;;;;;;;;;;;;;;;0.79;76.33;101197.50;5011720;28;19925;-86
2022/01/26 20:31:21;;;;;;;;;;;;;;;0.82;76.22;101203.66;5009639;28;19921;-83
2022/01/26 20:33:48;;;;;;;;;;;;;;;0.87;76.27;101207.22;5010635;28;20373;-88
2022/01/26 20:36:14;;;;;;;;;;;;;;;0.83;76.26;101199.31;5010724;28;19929;-86
2022/01/26 20:38:39;;;;;;;;;;;;;;;0.84;76.14;101201.94;5011379;28;19925;-85
2022/01/26 20:41:05;;;;;;;;;;;;;;;0.82;76.07;101193.22;4993490;28;19936;-84
2022/01/26 20:43:31;;;;;;;;;;;;;;;0.82;75.94;101187.13;5011393;28;19928;-84
2022/01/26 20:45:56;;;;;;;;;;;;;;;0.84;75.58;101175.84;5010433;28;19925;-85
2022/01/26 20:48:21;;;;;;;;;;;;;;;0.84;75.59;101177.59;5011400;28;19929;-88
2022/01/26 20:50:47;;;;;;;;;;;;;;;0.84;75.52;101168.03;5015429;28;19931;-85
2022/01/26 20:53:12;;;;;;;;;;;;;;;0.85;75.51;101179.38;5014835;28;20012;-89
2022/01/26 20:55:37;;;;;;;;;;;;;;;0.85;75.46;101176.75;4996793;28;19921;-84
2022/01/26 20:58:03;;;;;;;;;;;;;;;0.84;75.36;101175.84;5014479;28;20008;-86
2022/01/26 21:00:28;;;;;;;;;;;;;;;0.88;75.27;101175.06;5015027;28;19926;-83
2022/01/26 21:02:53;;;;;;;;;;;;;;;0.84;75.01;101165.41;5013824;28;20008;-88
2022/01/26 21:05:21;;;;;;;;;;;;;;;0.90;75.16;101173.38;5014712;28;19931;-83
2022/01/26 21:07:46;;;;;;;;;;;;;;;0.91;75.05;101179.50;4997065;28;19924;-83
2022/01/26 21:10:12;;;;;;;;;;;;;;;0.93;74.99;101179.50;5014300;28;19929;-83
2022/01/26 21:12:38;;;;;;;;;;;;;;;0.91;74.91;101187.31;4996958;28;19926;-83
2022/01/26 21:15:04;;;;;;;;;;;;;;;0.92;74.81;101180.34;5013826;28;19918;-83
2022/01/26 21:17:30;;;;;;;;;;;;;;;0.93;74.78;101174.28;5012643;28;20008;-88
2022/01/26 21:19:55;;;;;;;;;;;;;;;0.93;74.67;101164.72;5014871;28;20029;-89
2022/01/26 21:22:20;;;;;;;;;;;;;;;0.96;74.63;101158.66;4996526;28;19929;-83
2022/01/26 21:24:45;;;;;;;;;;;;;;;0.94;74.58;101161.25;5014097;28;20008;-83
2022/01/26 21:27:11;;;;;;;;;;;;;;;0.97;74.41;101155.22;5014768;28;19921;-85
2022/01/26 21:29:36;;;;;;;;;;;;;;;0.93;74.16;101149.06;5014942;28;20357;-85
2022/01/26 21:32:01;;;;;;;;;;;;;;;0.95;73.95;101154.31;5012308;28;19984;-83
2022/01/26 21:34:27;;;;;;;;;;;;;;;0.97;74.02;101158.69;5013848;28;19949;-83
2022/01/26 21:36:52;;;;;;;;;;;;;;;0.97;73.81;101163.03;5014430;28;19925;-83
2022/01/26 21:39:17;;;;;;;;;;;;;;;0.99;73.98;101163.94;5012555;28;20285;-83
2022/01/26 21:41:43;;;;;;;;;;;;;;;0.97;73.93;101165.66;4996067;28;19932;-83
2022/01/26 21:44:11;;;;;;;;;;;;;;;1.03;73.89;101165.78;5013692;28;19921;-83
2022/01/26 21:46:38;;;;;;;;;;;;;;;1.02;73.80;101159.69;5012244;28;20000;-87
2022/01/26 21:49:03;;;;;;;;;;;;;;;1.01;73.70;101165.75;5013723;28;19925;-85
2022/01/26 21:51:29;;;;;;;;;;;;;;;1.04;73.67;101163.19;5013998;28;20012;-82
2022/01/26 21:53:54;;;;;;;;;;;;;;;1.08;73.52;101154.53;4996313;28;20186;-83
2022/01/26 21:56:20;;;;;;;;;;;;;;;1.07;73.45;101158.03;4995873;28;20300;-82
2022/01/26 21:58:45;;;;;;;;;;;;;;;1.08;73.33;101153.66;4996386;28;19971;-83
2022/01/26 22:01:11;;;;;;;;;;;;;;;1.08;73.25;101148.44;4994126;28;19929;-83
2022/01/26 22:03:36;;;;;;;;;;;;;;;1.08;72.90;101158.88;5013906;28;19921;-84
2022/01/26 22:06:01;;;;;;;;;;;;;;;1.12;72.91;101160.72;4996243;28;19933;-89
2022/01/26 22:08:26;;;;;;;;;;;;;;;1.11;72.83;101155.47;4995759;28;19948;-86
2022/01/26 22:10:52;;;;;;;;;;;;;;;1.12;72.83;101154.59;5013011;28;20048;-85
2022/01/26 22:13:17;;;;;;;;;;;;;;;1.12;72.86;101157.22;5012495;28;20281;-83
2022/01/26 22:15:43;;;;;;;;;;;;;;;1.16;72.79;101151.19;4995174;28;19921;-83
2022/01/26 22:18:08;;;;;;;;;;;;;;;1.15;72.57;101155.56;4996444;28;19925;-83
2022/01/26 22:20:34;;;;;;;;;;;;;;;1.15;72.47;101154.66;4995813;28;19917;-88
2022/01/26 22:22:59;;;;;;;;;;;;;;;1.16;72.55;101143.38;4996275;28;19917;-83
2022/01/26 22:25:28;;;;;;;;;;;;;;;1.18;72.55;101145.16;4995590;28;19926;-86
2022/01/26 22:27:54;;;;;;;;;;;;;;;1.22;72.62;101151.31;4994547;28;19932;-84
2022/01/26 22:30:25;;;;;;;;;;;;;;;1.22;72.64;101152.19;4994672;28;19921;-83
